KROS

Rush City Regional Airport

Rush City, Minnesota, USA
METAR KROS 190635Z AUTO 18003KT 10SM CLR M02/M04 A2970 RMK AO2 T10251041
Observed Flight Rules
Jan-19 @ 06:35 UTC (33 minutes ago) Visual Flight Rules
Wind Visibility Clouds
180° at 3 knots 10 miles
  • Clear skies
Temperatures Readings
Current -3°C / 27°F
Dewpoint -4°C / 25°F
Humidity 93%
Altimeter 29.7" Hg
Pressure 1006 hPa
Elevation 281
METAR KROS 190635Z AUTO 18003KT 10SM CLR M02/M04 A2970 RMK AO2 T10251041
Observed Flight Rules
Jan-19 @ 06:35 UTC
(33 minutes ago)
VFR
Wind Visibility
180° at 3 knots 10 miles
Clouds
  • Clear skies
Temperature Dewpoint
-3°C / 27°F -4°C / 25°F
Humidity Altimeter Pressure
93% 29.7" Hg 1006 hPa